sensor_id;sensor_type;location;lat;lon;timestamp;temperature;humidity
11497;DHT22;5805;51.542;7.230;2024-03-02T00:01:03;10.40;99.90
11497;DHT22;5805;51.542;7.230;2024-03-02T00:03:29;10.40;99.90
11497;DHT22;5805;51.542;7.230;2024-03-02T00:05:55;10.40;99.90
11497;DHT22;5805;51.542;7.230;2024-03-02T00:08:23;10.40;99.90
11497;DHT22;5805;51.542;7.230;2024-03-02T00:10:50;10.40;99.90
11497;DHT22;5805;51.542;7.230;2024-03-02T00:13:16;10.40;99.90
11497;DHT22;5805;51.542;7.230;2024-03-02T00:15:47;10.40;99.90
11497;DHT22;5805;51.542;7.230;2024-03-02T00:18:14;10.40;99.90
11497;DHT22;5805;51.542;7.230;2024-03-02T00:20:40;10.40;99.90
11497;DHT22;5805;51.542;7.230;2024-03-02T00:23:07;10.40;99.90
11497;DHT22;5805;51.542;7.230;2024-03-02T00:25:39;10.40;99.90
11497;DHT22;5805;51.542;7.230;2024-03-02T00:28:13;10.40;99.90
11497;DHT22;5805;51.542;7.230;2024-03-02T00:30:52;10.40;99.90
11497;DHT22;5805;51.542;7.230;2024-03-02T00:33:20;10.40;99.90
11497;DHT22;5805;51.542;7.230;2024-03-02T00:35:46;10.30;99.90
11497;DHT22;5805;51.542;7.230;2024-03-02T00:38:12;10.40;99.90
11497;DHT22;5805;51.542;7.230;2024-03-02T00:40:39;10.40;99.90
11497;DHT22;5805;51.542;7.230;2024-03-02T00:43:06;10.40;99.90
11497;DHT22;5805;51.542;7.230;2024-03-02T00:45:39;10.40;99.90
11497;DHT22;5805;51.542;7.230;2024-03-02T00:48:06;10.30;99.90
11497;DHT22;5805;51.542;7.230;2024-03-02T00:50:33;10.30;99.90
11497;DHT22;5805;51.542;7.230;2024-03-02T00:52:59;10.30;99.90
11497;DHT22;5805;51.542;7.230;2024-03-02T00:55:24;10.40;99.90
11497;DHT22;5805;51.542;7.230;2024-03-02T00:57:50;10.30;99.90
11497;DHT22;5805;51.542;7.230;2024-03-02T01:00:18;10.30;99.90
11497;DHT22;5805;51.542;7.230;2024-03-02T01:02:43;10.30;99.90
11497;DHT22;5805;51.542;7.230;2024-03-02T01:05:09;10.20;99.90
11497;DHT22;5805;51.542;7.230;2024-03-02T01:07:35;10.20;99.90
11497;DHT22;5805;51.542;7.230;2024-03-02T01:10:03;10.30;99.90
11497;DHT22;5805;51.542;7.230;2024-03-02T01:12:29;10.20;99.90
11497;DHT22;5805;51.542;7.230;2024-03-02T01:14:55;10.20;99.90
11497;DHT22;5805;51.542;7.230;2024-03-02T01:17:22;10.20;99.90
11497;DHT22;5805;51.542;7.230;2024-03-02T01:19:50;10.20;99.90
11497;DHT22;5805;51.542;7.230;2024-03-02T01:22:15;10.30;99.90
11497;DHT22;5805;51.542;7.230;2024-03-02T01:24:42;10.20;99.90
11497;DHT22;5805;51.542;7.230;2024-03-02T01:27:07;10.20;99.90
11497;DHT22;5805;51.542;7.230;2024-03-02T01:29:33;10.30;99.90
11497;DHT22;5805;51.542;7.230;2024-03-02T01:31:59;10.30;99.90
11497;DHT22;5805;51.542;7.230;2024-03-02T01:34:26;10.20;99.90
11497;DHT22;5805;51.542;7.230;2024-03-02T01:36:52;10.40;99.90
11497;DHT22;5805;51.542;7.230;2024-03-02T01:39:17;10.20;99.90
11497;DHT22;5805;51.542;7.230;2024-03-02T01:41:43;10.50;99.90
11497;DHT22;5805;51.542;7.230;2024-03-02T01:44:09;10.30;99.90
11497;DHT22;5805;51.542;7.230;2024-03-02T01:46:34;10.40;99.90
11497;DHT22;5805;51.542;7.230;2024-03-02T01:49:00;10.60;99.90
11497;DHT22;5805;51.542;7.230;2024-03-02T01:51:27;10.50;99.70
11497;DHT22;5805;51.542;7.230;2024-03-02T01:53:53;10.50;99.50
11497;DHT22;5805;51.542;7.230;2024-03-02T01:56:18;10.50;99.20
11497;DHT22;5805;51.542;7.230;2024-03-02T01:58:44;10.50;99.10
11497;DHT22;5805;51.542;7.230;2024-03-02T02:01:10;10.50;99.20
11497;DHT22;5805;51.542;7.230;2024-03-02T02:03:35;10.50;99.00
11497;DHT22;5805;51.542;7.230;2024-03-02T02:06:01;10.50;99.10
11497;DHT22;5805;51.542;7.230;2024-03-02T02:08:28;10.40;99.20
11497;DHT22;5805;51.542;7.230;2024-03-02T02:10:54;10.40;99.30
11497;DHT22;5805;51.542;7.230;2024-03-02T02:13:20;10.30;99.30
11497;DHT22;5805;51.542;7.230;2024-03-02T02:15:46;10.30;99.30
11497;DHT22;5805;51.542;7.230;2024-03-02T02:18:11;10.30;99.60
11497;DHT22;5805;51.542;7.230;2024-03-02T02:20:37;10.20;99.50
11497;DHT22;5805;51.542;7.230;2024-03-02T02:23:04;10.30;99.60
11497;DHT22;5805;51.542;7.230;2024-03-02T02:25:32;10.20;99.70
11497;DHT22;5805;51.542;7.230;2024-03-02T02:27:58;10.30;99.60
11497;DHT22;5805;51.542;7.230;2024-03-02T02:30:25;10.40;99.50
11497;DHT22;5805;51.542;7.230;2024-03-02T02:32:51;10.40;99.10
11497;DHT22;5805;51.542;7.230;2024-03-02T02:35:16;10.40;99.00
11497;DHT22;5805;51.542;7.230;2024-03-02T02:37:43;10.40;98.90
11497;DHT22;5805;51.542;7.230;2024-03-02T02:40:11;10.40;98.90
11497;DHT22;5805;51.542;7.230;2024-03-02T02:42:37;10.40;99.10
11497;DHT22;5805;51.542;7.230;2024-03-02T02:45:03;10.90;99.20
11497;DHT22;5805;51.542;7.230;2024-03-02T02:47:29;10.50;98.70
11497;DHT22;5805;51.542;7.230;2024-03-02T02:49:55;10.50;98.60
11497;DHT22;5805;51.542;7.230;2024-03-02T02:52:20;10.60;98.50
11497;DHT22;5805;51.542;7.230;2024-03-02T02:54:46;10.60;98.30
11497;DHT22;5805;51.542;7.230;2024-03-02T02:57:13;10.80;98.40
11497;DHT22;5805;51.542;7.230;2024-03-02T02:59:39;10.80;98.10
11497;DHT22;5805;51.542;7.230;2024-03-02T03:02:05;10.70;97.80
11497;DHT22;5805;51.542;7.230;2024-03-02T03:04:30;10.80;97.90
11497;DHT22;5805;51.542;7.230;2024-03-02T03:06:56;10.80;97.60
11497;DHT22;5805;51.542;7.230;2024-03-02T03:09:22;10.80;97.70
11497;DHT22;5805;51.542;7.230;2024-03-02T03:11:47;10.80;97.60
11497;DHT22;5805;51.542;7.230;2024-03-02T03:14:15;10.90;97.50
11497;DHT22;5805;51.542;7.230;2024-03-02T03:16:40;10.90;97.20
11497;DHT22;5805;51.542;7.230;2024-03-02T03:19:06;10.90;97.10
11497;DHT22;5805;51.542;7.230;2024-03-02T03:21:32;10.90;97.00
11497;DHT22;5805;51.542;7.230;2024-03-02T03:23:57;10.90;97.10
11497;DHT22;5805;51.542;7.230;2024-03-02T03:26:23;11.30;97.50
11497;DHT22;5805;51.542;7.230;2024-03-02T03:28:49;10.80;97.40
11497;DHT22;5805;51.542;7.230;2024-03-02T03:31:16;10.80;97.20
11497;DHT22;5805;51.542;7.230;2024-03-02T03:33:41;10.90;96.90
11497;DHT22;5805;51.542;7.230;2024-03-02T03:36:07;10.90;96.80
11497;DHT22;5805;51.542;7.230;2024-03-02T03:38:33;11.00;96.60
11497;DHT22;5805;51.542;7.230;2024-03-02T03:41:01;11.00;96.60
11497;DHT22;5805;51.542;7.230;2024-03-02T03:43:26;11.00;96.50
11497;DHT22;5805;51.542;7.230;2024-03-02T03:45:52;11.00;96.40
11497;DHT22;5805;51.542;7.230;2024-03-02T03:48:19;11.00;96.20
11497;DHT22;5805;51.542;7.230;2024-03-02T03:50:45;11.00;96.20
11497;DHT22;5805;51.542;7.230;2024-03-02T03:53:10;11.00;96.10
11497;DHT22;5805;51.542;7.230;2024-03-02T03:55:36;11.00;96.30
11497;DHT22;5805;51.542;7.230;2024-03-02T03:58:02;11.00;96.20
11497;DHT22;5805;51.542;7.230;2024-03-02T04:00:28;11.00;96.40
11497;DHT22;5805;51.542;7.230;2024-03-02T04:02:53;11.00;96.20
11497;DHT22;5805;51.542;7.230;2024-03-02T04:05:20;11.00;96.00
11497;DHT22;5805;51.542;7.230;2024-03-02T04:07:46;11.00;95.70
11497;DHT22;5805;51.542;7.230;2024-03-02T04:10:12;11.10;96.00
11497;DHT22;5805;51.542;7.230;2024-03-02T04:12:38;10.90;96.00
11497;DHT22;5805;51.542;7.230;2024-03-02T04:15:04;10.90;96.10
11497;DHT22;5805;51.542;7.230;2024-03-02T04:17:32;10.80;96.40
11497;DHT22;5805;51.542;7.230;2024-03-02T04:19:57;10.70;96.80
11497;DHT22;5805;51.542;7.230;2024-03-02T04:22:25;10.70;97.30
11497;DHT22;5805;51.542;7.230;2024-03-02T04:24:50;10.70;97.20
11497;DHT22;5805;51.542;7.230;2024-03-02T04:27:16;10.70;97.40
11497;DHT22;5805;51.542;7.230;2024-03-02T04:29:42;10.70;97.40
11497;DHT22;5805;51.542;7.230;2024-03-02T04:32:07;10.80;97.50
11497;DHT22;5805;51.542;7.230;2024-03-02T04:34:33;10.80;97.40
11497;DHT22;5805;51.542;7.230;2024-03-02T04:36:59;10.80;97.40
11497;DHT22;5805;51.542;7.230;2024-03-02T04:39:28;10.70;97.30
11497;DHT22;5805;51.542;7.230;2024-03-02T04:41:53;11.00;97.40
11497;DHT22;5805;51.542;7.230;2024-03-02T04:44:19;10.80;97.40
11497;DHT22;5805;51.542;7.230;2024-03-02T04:46:45;10.80;97.60
11497;DHT22;5805;51.542;7.230;2024-03-02T04:49:10;10.80;97.50
11497;DHT22;5805;51.542;7.230;2024-03-02T04:51:36;10.70;97.50
11497;DHT22;5805;51.542;7.230;2024-03-02T04:54:02;10.70;97.60
11497;DHT22;5805;51.542;7.230;2024-03-02T04:56:29;10.70;97.60
11497;DHT22;5805;51.542;7.230;2024-03-02T04:58:54;10.70;98.00
11497;DHT22;5805;51.542;7.230;2024-03-02T05:01:20;10.70;97.60
11497;DHT22;5805;51.542;7.230;2024-03-02T05:03:46;10.70;97.60
11497;DHT22;5805;51.542;7.230;2024-03-02T05:06:11;10.70;97.70
11497;DHT22;5805;51.542;7.230;2024-03-02T05:08:37;10.60;97.80
11497;DHT22;5805;51.542;7.230;2024-03-02T05:11:03;11.10;98.00
11497;DHT22;5805;51.542;7.230;2024-03-02T05:13:30;10.50;98.00
11497;DHT22;5805;51.542;7.230;2024-03-02T05:15:56;10.50;98.10
11497;DHT22;5805;51.542;7.230;2024-03-02T05:18:22;11.10;98.30
11497;DHT22;5805;51.542;7.230;2024-03-02T05:20:47;10.40;98.20
11497;DHT22;5805;51.542;7.230;2024-03-02T05:23:13;10.40;98.40
11497;DHT22;5805;51.542;7.230;2024-03-02T05:25:39;10.30;98.80
11497;DHT22;5805;51.542;7.230;2024-03-02T05:28:05;10.30;98.60
11497;DHT22;5805;51.542;7.230;2024-03-02T05:30:32;10.30;98.90
11497;DHT22;5805;51.542;7.230;2024-03-02T05:32:58;10.20;99.00
11497;DHT22;5805;51.542;7.230;2024-03-02T05:35:23;10.70;99.20
11497;DHT22;5805;51.542;7.230;2024-03-02T05:37:49;10.10;99.10
11497;DHT22;5805;51.542;7.230;2024-03-02T05:40:15;10.10;99.20
11497;DHT22;5805;51.542;7.230;2024-03-02T05:42:40;10.10;99.30
11497;DHT22;5805;51.542;7.230;2024-03-02T05:45:07;10.20;99.40
11497;DHT22;5805;51.542;7.230;2024-03-02T05:47:34;10.10;99.30
11497;DHT22;5805;51.542;7.230;2024-03-02T05:50:00;10.10;99.50
11497;DHT22;5805;51.542;7.230;2024-03-02T05:52:25;10.70;99.70
11497;DHT22;5805;51.542;7.230;2024-03-02T05:54:51;10.10;99.60
11497;DHT22;5805;51.542;7.230;2024-03-02T05:57:17;10.10;99.80
11497;DHT22;5805;51.542;7.230;2024-03-02T05:59:43;10.10;99.90
11497;DHT22;5805;51.542;7.230;2024-03-02T06:02:08;10.00;99.80
11497;DHT22;5805;51.542;7.230;2024-03-02T06:04:35;10.10;99.80
11497;DHT22;5805;51.542;7.230;2024-03-02T06:07:03;10.00;99.90
11497;DHT22;5805;51.542;7.230;2024-03-02T06:09:29;10.50;99.90
11497;DHT22;5805;51.542;7.230;2024-03-02T06:11:55;10.00;99.90
11497;DHT22;5805;51.542;7.230;2024-03-02T06:14:20;10.00;99.90
11497;DHT22;5805;51.542;7.230;2024-03-02T06:16:46;10.10;99.90
11497;DHT22;5805;51.542;7.230;2024-03-02T06:19:12;9.90;99.90
11497;DHT22;5805;51.542;7.230;2024-03-02T06:21:39;9.90;99.90
11497;DHT22;5805;51.542;7.230;2024-03-02T06:24:05;9.90;99.90
11497;DHT22;5805;51.542;7.230;2024-03-02T06:26:31;10.00;99.90
11497;DHT22;5805;51.542;7.230;2024-03-02T06:28:56;10.40;99.90
11497;DHT22;5805;51.542;7.230;2024-03-02T06:31:22;10.10;99.90
11497;DHT22;5805;51.542;7.230;2024-03-02T06:33:48;10.10;99.90
11497;DHT22;5805;51.542;7.230;2024-03-02T06:36:13;10.20;99.90
11497;DHT22;5805;51.542;7.230;2024-03-02T06:38:41;10.20;99.90
11497;DHT22;5805;51.542;7.230;2024-03-02T06:41:06;10.20;99.80
11497;DHT22;5805;51.542;7.230;2024-03-02T06:43:32;10.20;99.80
11497;DHT22;5805;51.542;7.230;2024-03-02T06:45:58;10.40;99.70
11497;DHT22;5805;51.542;7.230;2024-03-02T06:48:23;10.20;99.50
11497;DHT22;5805;51.542;7.230;2024-03-02T06:50:49;10.30;99.50
11497;DHT22;5805;51.542;7.230;2024-03-02T06:53:16;10.30;99.50
11497;DHT22;5805;51.542;7.230;2024-03-02T06:55:43;10.30;99.60
11497;DHT22;5805;51.542;7.230;2024-03-02T06:58:09;10.30;99.60
11497;DHT22;5805;51.542;7.230;2024-03-02T07:00:34;10.40;99.40
11497;DHT22;5805;51.542;7.230;2024-03-02T07:03:00;10.50;99.20
11497;DHT22;5805;51.542;7.230;2024-03-02T07:05:26;10.60;98.90
11497;DHT22;5805;51.542;7.230;2024-03-02T07:07:51;10.90;98.90
11497;DHT22;5805;51.542;7.230;2024-03-02T07:10:17;11.00;98.50
11497;DHT22;5805;51.542;7.230;2024-03-02T07:12:44;11.20;97.50
11497;DHT22;5805;51.542;7.230;2024-03-02T07:15:10;11.30;97.20
11497;DHT22;5805;51.542;7.230;2024-03-02T07:17:36;11.60;96.10
11497;DHT22;5805;51.542;7.230;2024-03-02T07:20:01;12.00;95.70
11497;DHT22;5805;51.542;7.230;2024-03-02T07:22:27;11.80;95.30
11497;DHT22;5805;51.542;7.230;2024-03-02T07:24:53;11.70;94.90
11497;DHT22;5805;51.542;7.230;2024-03-02T07:27:18;11.70;95.00
11497;DHT22;5805;51.542;7.230;2024-03-02T07:29:45;11.60;95.00
11497;DHT22;5805;51.542;7.230;2024-03-02T07:32:11;11.60;94.80
11497;DHT22;5805;51.542;7.230;2024-03-02T07:34:37;11.60;94.90
11497;DHT22;5805;51.542;7.230;2024-03-02T07:37:03;11.60;95.00
11497;DHT22;5805;51.542;7.230;2024-03-02T07:39:32;11.60;95.10
11497;DHT22;5805;51.542;7.230;2024-03-02T07:41:58;11.60;95.00
11497;DHT22;5805;51.542;7.230;2024-03-02T07:44:25;11.70;94.40
11497;DHT22;5805;51.542;7.230;2024-03-02T07:46:53;12.40;94.80
11497;DHT22;5805;51.542;7.230;2024-03-02T07:49:19;11.90;94.40
11497;DHT22;5805;51.542;7.230;2024-03-02T07:51:45;11.90;94.10
11497;DHT22;5805;51.542;7.230;2024-03-02T07:54:10;12.00;93.50
11497;DHT22;5805;51.542;7.230;2024-03-02T07:56:36;12.10;93.40
11497;DHT22;5805;51.542;7.230;2024-03-02T07:59:02;12.10;93.00
11497;DHT22;5805;51.542;7.230;2024-03-02T08:01:28;12.00;92.90
11497;DHT22;5805;51.542;7.230;2024-03-02T08:03:57;12.00;93.50
11497;DHT22;5805;51.542;7.230;2024-03-02T08:06:22;12.00;93.60
11497;DHT22;5805;51.542;7.230;2024-03-02T08:08:48;12.00;93.60
11497;DHT22;5805;51.542;7.230;2024-03-02T08:11:14;12.10;93.70
11497;DHT22;5805;51.542;7.230;2024-03-02T08:13:39;12.20;92.90
11497;DHT22;5805;51.542;7.230;2024-03-02T08:16:06;12.20;93.10
11497;DHT22;5805;51.542;7.230;2024-03-02T08:18:31;12.30;93.20
11497;DHT22;5805;51.542;7.230;2024-03-02T08:20:58;12.30;93.10
11497;DHT22;5805;51.542;7.230;2024-03-02T08:23:25;12.40;93.00
11497;DHT22;5805;51.542;7.230;2024-03-02T08:25:50;12.40;92.60
11497;DHT22;5805;51.542;7.230;2024-03-02T08:28:16;12.50;92.50
11497;DHT22;5805;51.542;7.230;2024-03-02T08:30:42;12.50;92.00
11497;DHT22;5805;51.542;7.230;2024-03-02T08:33:07;12.60;91.60
11497;DHT22;5805;51.542;7.230;2024-03-02T08:35:33;12.70;91.70
11497;DHT22;5805;51.542;7.230;2024-03-02T08:38:00;12.80;91.80
11497;DHT22;5805;51.542;7.230;2024-03-02T08:40:26;13.00;91.80
11497;DHT22;5805;51.542;7.230;2024-03-02T08:42:52;13.30;91.90
11497;DHT22;5805;51.542;7.230;2024-03-02T08:45:18;13.70;88.20
11497;DHT22;5805;51.542;7.230;2024-03-02T08:47:44;13.90;86.70
11497;DHT22;5805;51.542;7.230;2024-03-02T08:50:10;13.90;83.40
11497;DHT22;5805;51.542;7.230;2024-03-02T08:52:35;13.90;84.00
11497;DHT22;5805;51.542;7.230;2024-03-02T08:55:03;13.90;82.10
11497;DHT22;5805;51.542;7.230;2024-03-02T08:57:29;13.90;83.00
11497;DHT22;5805;51.542;7.230;2024-03-02T08:59:54;13.90;82.70
11497;DHT22;5805;51.542;7.230;2024-03-02T09:02:23;13.90;81.80
11497;DHT22;5805;51.542;7.230;2024-03-02T09:04:49;13.90;81.60
11497;DHT22;5805;51.542;7.230;2024-03-02T09:07:14;13.90;80.00
11497;DHT22;5805;51.542;7.230;2024-03-02T09:09:41;13.90;80.60
11497;DHT22;5805;51.542;7.230;2024-03-02T09:12:09;14.00;79.70
11497;DHT22;5805;51.542;7.230;2024-03-02T09:14:35;14.00;79.00
11497;DHT22;5805;51.542;7.230;2024-03-02T09:17:01;14.10;79.00
11497;DHT22;5805;51.542;7.230;2024-03-02T09:19:27;14.20;77.90
11497;DHT22;5805;51.542;7.230;2024-03-02T09:21:53;14.30;77.20
11497;DHT22;5805;51.542;7.230;2024-03-02T09:24:18;14.30;76.20
11497;DHT22;5805;51.542;7.230;2024-03-02T09:26:44;14.40;76.20
11497;DHT22;5805;51.542;7.230;2024-03-02T09:29:11;14.40;76.00
11497;DHT22;5805;51.542;7.230;2024-03-02T09:31:39;14.50;73.80
11497;DHT22;5805;51.542;7.230;2024-03-02T09:34:05;14.50;73.80
11497;DHT22;5805;51.542;7.230;2024-03-02T09:36:31;14.60;73.20
11497;DHT22;5805;51.542;7.230;2024-03-02T09:38:56;14.60;74.10
11497;DHT22;5805;51.542;7.230;2024-03-02T09:41:22;14.70;73.50
11497;DHT22;5805;51.542;7.230;2024-03-02T09:43:48;14.80;72.80
11497;DHT22;5805;51.542;7.230;2024-03-02T09:46:16;14.90;72.60
11497;DHT22;5805;51.542;7.230;2024-03-02T09:48:41;14.90;71.10
11497;DHT22;5805;51.542;7.230;2024-03-02T09:51:08;14.90;69.90
11497;DHT22;5805;51.542;7.230;2024-03-02T09:53:34;14.90;69.80
11497;DHT22;5805;51.542;7.230;2024-03-02T09:56:00;15.10;70.30
11497;DHT22;5805;51.542;7.230;2024-03-02T09:58:26;15.20;68.70
11497;DHT22;5805;51.542;7.230;2024-03-02T10:00:52;15.30;68.30
11497;DHT22;5805;51.542;7.230;2024-03-02T10:03:20;15.40;65.50
11497;DHT22;5805;51.542;7.230;2024-03-02T10:05:45;15.40;65.80
11497;DHT22;5805;51.542;7.230;2024-03-02T10:08:11;15.40;64.40
11497;DHT22;5805;51.542;7.230;2024-03-02T10:10:37;15.50;64.60
11497;DHT22;5805;51.542;7.230;2024-03-02T10:13:04;15.50;64.70
11497;DHT22;5805;51.542;7.230;2024-03-02T10:15:30;15.60;64.10
11497;DHT22;5805;51.542;7.230;2024-03-02T10:17:56;15.70;63.50
11497;DHT22;5805;51.542;7.230;2024-03-02T10:20:24;15.80;63.10
11497;DHT22;5805;51.542;7.230;2024-03-02T10:22:49;15.90;63.20
11497;DHT22;5805;51.542;7.230;2024-03-02T10:25:28;16.00;62.70
11497;DHT22;5805;51.542;7.230;2024-03-02T10:27:57;16.10;61.80
11497;DHT22;5805;51.542;7.230;2024-03-02T10:30:23;16.20;61.70
11497;DHT22;5805;51.542;7.230;2024-03-02T10:32:49;16.20;60.70
11497;DHT22;5805;51.542;7.230;2024-03-02T10:35:15;16.30;59.90
11497;DHT22;5805;51.542;7.230;2024-03-02T10:37:43;16.30;59.70
11497;DHT22;5805;51.542;7.230;2024-03-02T10:40:11;16.40;59.90
11497;DHT22;5805;51.542;7.230;2024-03-02T10:42:38;16.30;59.20
11497;DHT22;5805;51.542;7.230;2024-03-02T10:45:06;16.40;59.90
11497;DHT22;5805;51.542;7.230;2024-03-02T10:47:33;16.40;59.50
11497;DHT22;5805;51.542;7.230;2024-03-02T10:50:01;16.40;58.90
11497;DHT22;5805;51.542;7.230;2024-03-02T10:52:28;16.40;59.00
11497;DHT22;5805;51.542;7.230;2024-03-02T10:54:55;16.40;58.20
11497;DHT22;5805;51.542;7.230;2024-03-02T10:57:23;16.30;58.40
11497;DHT22;5805;51.542;7.230;2024-03-02T10:59:53;16.20;58.90
11497;DHT22;5805;51.542;7.230;2024-03-02T11:02:21;16.10;58.70
11497;DHT22;5805;51.542;7.230;2024-03-02T11:04:49;16.00;59.30
11497;DHT22;5805;51.542;7.230;2024-03-02T11:07:18;15.90;60.00
11497;DHT22;5805;51.542;7.230;2024-03-02T11:09:50;16.00;60.40
11497;DHT22;5805;51.542;7.230;2024-03-02T11:12:23;16.10;60.10
11497;DHT22;5805;51.542;7.230;2024-03-02T11:14:51;16.20;58.70
11497;DHT22;5805;51.542;7.230;2024-03-02T11:17:17;16.20;58.30
11497;DHT22;5805;51.542;7.230;2024-03-02T11:19:44;16.30;58.30
11497;DHT22;5805;51.542;7.230;2024-03-02T11:22:10;16.30;58.80
11497;DHT22;5805;51.542;7.230;2024-03-02T11:24:36;16.40;59.00
11497;DHT22;5805;51.542;7.230;2024-03-02T11:27:03;16.50;57.60
11497;DHT22;5805;51.542;7.230;2024-03-02T11:29:47;16.50;57.90
11497;DHT22;5805;51.542;7.230;2024-03-02T11:32:17;16.60;57.30
11497;DHT22;5805;51.542;7.230;2024-03-02T11:34:45;16.60;56.90
11497;DHT22;5805;51.542;7.230;2024-03-02T11:37:11;16.70;57.80
11497;DHT22;5805;51.542;7.230;2024-03-02T11:39:38;16.80;57.10
11497;DHT22;5805;51.542;7.230;2024-03-02T11:42:05;16.80;54.70
11497;DHT22;5805;51.542;7.230;2024-03-02T11:44:32;16.80;54.60
11497;DHT22;5805;51.542;7.230;2024-03-02T11:47:01;16.80;54.50
11497;DHT22;5805;51.542;7.230;2024-03-02T11:49:37;16.70;54.60
11497;DHT22;5805;51.542;7.230;2024-03-02T11:52:04;16.80;54.50
11497;DHT22;5805;51.542;7.230;2024-03-02T11:54:32;16.90;54.40
11497;DHT22;5805;51.542;7.230;2024-03-02T11:57:00;16.80;55.00
11497;DHT22;5805;51.542;7.230;2024-03-02T11:59:26;16.80;54.20
11497;DHT22;5805;51.542;7.230;2024-03-02T12:01:52;16.70;54.40
11497;DHT22;5805;51.542;7.230;2024-03-02T12:04:21;16.60;54.80
11497;DHT22;5805;51.542;7.230;2024-03-02T12:06:47;16.60;54.20
11497;DHT22;5805;51.542;7.230;2024-03-02T12:09:15;16.50;54.30
11497;DHT22;5805;51.542;7.230;2024-03-02T12:11:41;16.50;54.60
11497;DHT22;5805;51.542;7.230;2024-03-02T12:14:11;16.50;54.60
11497;DHT22;5805;51.542;7.230;2024-03-02T12:16:36;16.50;55.30
11497;DHT22;5805;51.542;7.230;2024-03-02T12:19:02;16.50;55.20
11497;DHT22;5805;51.542;7.230;2024-03-02T12:21:29;16.40;55.10
11497;DHT22;5805;51.542;7.230;2024-03-02T12:23:55;16.50;55.60
11497;DHT22;5805;51.542;7.230;2024-03-02T12:26:22;16.50;55.40
11497;DHT22;5805;51.542;7.230;2024-03-02T12:28:48;16.50;55.50
11497;DHT22;5805;51.542;7.230;2024-03-02T12:31:14;16.50;55.70
11497;DHT22;5805;51.542;7.230;2024-03-02T12:33:40;16.50;55.90
11497;DHT22;5805;51.542;7.230;2024-03-02T12:36:09;16.40;56.00
11497;DHT22;5805;51.542;7.230;2024-03-02T12:38:36;16.30;56.10
11497;DHT22;5805;51.542;7.230;2024-03-02T12:41:02;16.30;56.80
11497;DHT22;5805;51.542;7.230;2024-03-02T12:43:30;16.40;57.20
11497;DHT22;5805;51.542;7.230;2024-03-02T12:45:56;16.50;56.20
11497;DHT22;5805;51.542;7.230;2024-03-02T12:48:21;16.60;55.70
11497;DHT22;5805;51.542;7.230;2024-03-02T12:50:48;16.70;55.70
11497;DHT22;5805;51.542;7.230;2024-03-02T12:53:16;16.70;54.90
11497;DHT22;5805;51.542;7.230;2024-03-02T12:55:43;16.60;55.20
11497;DHT22;5805;51.542;7.230;2024-03-02T12:58:16;16.60;56.30
11497;DHT22;5805;51.542;7.230;2024-03-02T13:00:42;16.50;57.30
11497;DHT22;5805;51.542;7.230;2024-03-02T13:03:08;16.50;57.40
11497;DHT22;5805;51.542;7.230;2024-03-02T13:05:33;16.60;57.20
11497;DHT22;5805;51.542;7.230;2024-03-02T13:07:59;16.50;57.30
11497;DHT22;5805;51.542;7.230;2024-03-02T13:10:25;16.50;57.20
11497;DHT22;5805;51.542;7.230;2024-03-02T13:12:52;16.50;57.00
11497;DHT22;5805;51.542;7.230;2024-03-02T13:15:18;16.60;55.40
11497;DHT22;5805;51.542;7.230;2024-03-02T13:17:44;16.60;55.00
11497;DHT22;5805;51.542;7.230;2024-03-02T13:20:10;16.70;55.10
11497;DHT22;5805;51.542;7.230;2024-03-02T13:22:36;16.70;54.60
11497;DHT22;5805;51.542;7.230;2024-03-02T13:25:02;16.90;55.00
11497;DHT22;5805;51.542;7.230;2024-03-02T13:27:28;17.00;54.90
11497;DHT22;5805;51.542;7.230;2024-03-02T13:29:55;17.00;54.80
11497;DHT22;5805;51.542;7.230;2024-03-02T13:32:21;17.00;55.20
11497;DHT22;5805;51.542;7.230;2024-03-02T13:34:47;16.90;56.10
11497;DHT22;5805;51.542;7.230;2024-03-02T13:37:13;16.90;56.50
11497;DHT22;5805;51.542;7.230;2024-03-02T13:39:39;16.90;56.50
11497;DHT22;5805;51.542;7.230;2024-03-02T13:42:05;16.90;56.50
11497;DHT22;5805;51.542;7.230;2024-03-02T13:44:31;16.90;56.80
11497;DHT22;5805;51.542;7.230;2024-03-02T13:46:59;16.80;56.20
11497;DHT22;5805;51.542;7.230;2024-03-02T13:49:25;16.70;56.60
11497;DHT22;5805;51.542;7.230;2024-03-02T13:51:51;16.80;56.20
11497;DHT22;5805;51.542;7.230;2024-03-02T13:54:16;16.70;55.60
11497;DHT22;5805;51.542;7.230;2024-03-02T13:56:42;16.70;55.80
11497;DHT22;5805;51.542;7.230;2024-03-02T13:59:08;16.70;55.50
11497;DHT22;5805;51.542;7.230;2024-03-02T14:01:34;16.70;55.20
11497;DHT22;5805;51.542;7.230;2024-03-02T14:04:01;16.70;55.50
11497;DHT22;5805;51.542;7.230;2024-03-02T14:06:26;16.70;55.50
11497;DHT22;5805;51.542;7.230;2024-03-02T14:08:52;16.70;55.10
11497;DHT22;5805;51.542;7.230;2024-03-02T14:11:18;16.80;55.00
11497;DHT22;5805;51.542;7.230;2024-03-02T14:13:44;16.90;54.70
11497;DHT22;5805;51.542;7.230;2024-03-02T14:16:10;16.90;54.40
11497;DHT22;5805;51.542;7.230;2024-03-02T14:18:36;16.90;54.80
11497;DHT22;5805;51.542;7.230;2024-03-02T14:21:03;16.90;55.70
11497;DHT22;5805;51.542;7.230;2024-03-02T14:23:29;16.90;54.40
11497;DHT22;5805;51.542;7.230;2024-03-02T14:25:55;16.80;54.30
11497;DHT22;5805;51.542;7.230;2024-03-02T14:28:21;16.80;54.40
11497;DHT22;5805;51.542;7.230;2024-03-02T14:30:46;16.80;54.10
11497;DHT22;5805;51.542;7.230;2024-03-02T14:33:12;16.80;54.00
11497;DHT22;5805;51.542;7.230;2024-03-02T14:35:38;16.80;54.10
11497;DHT22;5805;51.542;7.230;2024-03-02T14:38:05;16.80;54.70
11497;DHT22;5805;51.542;7.230;2024-03-02T14:40:31;16.80;54.70
11497;DHT22;5805;51.542;7.230;2024-03-02T14:42:57;16.90;54.40
11497;DHT22;5805;51.542;7.230;2024-03-02T14:45:22;16.90;54.00
11497;DHT22;5805;51.542;7.230;2024-03-02T14:47:48;16.80;54.30
11497;DHT22;5805;51.542;7.230;2024-03-02T14:50:17;16.80;54.50
11497;DHT22;5805;51.542;7.230;2024-03-02T14:52:44;16.80;54.70
11497;DHT22;5805;51.542;7.230;2024-03-02T14:55:11;16.80;55.00
11497;DHT22;5805;51.542;7.230;2024-03-02T14:57:37;16.80;55.10
11497;DHT22;5805;51.542;7.230;2024-03-02T15:00:03;16.70;55.20
11497;DHT22;5805;51.542;7.230;2024-03-02T15:02:29;16.70;55.30
11497;DHT22;5805;51.542;7.230;2024-03-02T15:04:55;16.60;55.50
11497;DHT22;5805;51.542;7.230;2024-03-02T15:07:20;16.60;55.80
11497;DHT22;5805;51.542;7.230;2024-03-02T15:09:46;16.50;56.70
11497;DHT22;5805;51.542;7.230;2024-03-02T15:12:13;16.50;56.40
11497;DHT22;5805;51.542;7.230;2024-03-02T15:14:39;16.40;56.70
11497;DHT22;5805;51.542;7.230;2024-03-02T15:17:05;16.50;57.10
11497;DHT22;5805;51.542;7.230;2024-03-02T15:19:30;16.50;57.10
11497;DHT22;5805;51.542;7.230;2024-03-02T15:21:56;16.60;56.60
11497;DHT22;5805;51.542;7.230;2024-03-02T15:24:22;16.60;56.80
11497;DHT22;5805;51.542;7.230;2024-03-02T15:26:48;16.50;56.80
11497;DHT22;5805;51.542;7.230;2024-03-02T15:29:15;16.40;56.60
11497;DHT22;5805;51.542;7.230;2024-03-02T15:31:40;16.40;57.10
11497;DHT22;5805;51.542;7.230;2024-03-02T15:34:06;16.40;57.30
11497;DHT22;5805;51.542;7.230;2024-03-02T15:36:32;16.40;57.40
11497;DHT22;5805;51.542;7.230;2024-03-02T15:38:57;16.30;57.20
11497;DHT22;5805;51.542;7.230;2024-03-02T15:41:23;16.30;57.30